sensor_id;sensor_type;location;lat;lon;timestamp;temperature;humidity
15959;DHT22;8078;47.822;9.402;2023-04-25T00:02:24;6.00;99.90
15959;DHT22;8078;47.822;9.402;2023-04-25T00:04:50;6.00;99.90
15959;DHT22;8078;47.822;9.402;2023-04-25T00:07:16;5.90;99.90
15959;DHT22;8078;47.822;9.402;2023-04-25T00:09:42;5.90;99.90
15959;DHT22;8078;47.822;9.402;2023-04-25T00:12:08;5.90;99.90
15959;DHT22;8078;47.822;9.402;2023-04-25T00:14:34;5.90;99.90
15959;DHT22;8078;47.822;9.402;2023-04-25T00:17:01;5.90;99.90
15959;DHT22;8078;47.822;9.402;2023-04-25T00:19:27;5.90;99.90
15959;DHT22;8078;47.822;9.402;2023-04-25T00:21:56;5.90;99.90
15959;DHT22;8078;47.822;9.402;2023-04-25T00:24:22;5.90;99.90
15959;DHT22;8078;47.822;9.402;2023-04-25T00:26:48;5.80;99.90
15959;DHT22;8078;47.822;9.402;2023-04-25T00:29:14;5.80;99.90
15959;DHT22;8078;47.822;9.402;2023-04-25T00:31:39;5.80;99.90
15959;DHT22;8078;47.822;9.402;2023-04-25T00:34:06;5.70;99.90
15959;DHT22;8078;47.822;9.402;2023-04-25T00:36:32;5.70;99.90
15959;DHT22;8078;47.822;9.402;2023-04-25T00:38:57;5.70;99.90
15959;DHT22;8078;47.822;9.402;2023-04-25T00:41:25;5.60;99.90
15959;DHT22;8078;47.822;9.402;2023-04-25T00:43:51;5.60;99.90
15959;DHT22;8078;47.822;9.402;2023-04-25T00:46:17;5.60;99.90
15959;DHT22;8078;47.822;9.402;2023-04-25T00:48:42;5.60;99.90
15959;DHT22;8078;47.822;9.402;2023-04-25T00:51:09;5.50;99.90
15959;DHT22;8078;47.822;9.402;2023-04-25T00:53:39;5.50;99.90
15959;DHT22;8078;47.822;9.402;2023-04-25T00:56:05;5.40;99.90
15959;DHT22;8078;47.822;9.402;2023-04-25T00:58:31;5.40;99.90
15959;DHT22;8078;47.822;9.402;2023-04-25T01:00:57;5.30;99.90
15959;DHT22;8078;47.822;9.402;2023-04-25T01:03:23;5.30;99.90
15959;DHT22;8078;47.822;9.402;2023-04-25T01:05:50;5.30;99.90
15959;DHT22;8078;47.822;9.402;2023-04-25T01:08:16;5.20;99.90
15959;DHT22;8078;47.822;9.402;2023-04-25T01:10:41;5.20;99.90
15959;DHT22;8078;47.822;9.402;2023-04-25T01:13:08;5.20;99.90
15959;DHT22;8078;47.822;9.402;2023-04-25T01:15:34;5.30;99.90
15959;DHT22;8078;47.822;9.402;2023-04-25T01:18:01;5.30;99.90
15959;DHT22;8078;47.822;9.402;2023-04-25T01:20:27;5.30;99.90
15959;DHT22;8078;47.822;9.402;2023-04-25T01:22:54;5.40;99.90
15959;DHT22;8078;47.822;9.402;2023-04-25T01:25:21;5.40;99.90
15959;DHT22;8078;47.822;9.402;2023-04-25T01:27:47;5.40;99.90
15959;DHT22;8078;47.822;9.402;2023-04-25T01:30:13;5.40;99.90
15959;DHT22;8078;47.822;9.402;2023-04-25T01:32:39;5.40;99.90
15959;DHT22;8078;47.822;9.402;2023-04-25T01:35:08;5.40;99.90
15959;DHT22;8078;47.822;9.402;2023-04-25T01:37:44;5.40;99.90
15959;DHT22;8078;47.822;9.402;2023-04-25T01:40:10;5.40;99.90
15959;DHT22;8078;47.822;9.402;2023-04-25T01:42:38;5.40;99.90
15959;DHT22;8078;47.822;9.402;2023-04-25T01:45:05;5.40;99.90
15959;DHT22;8078;47.822;9.402;2023-04-25T01:47:32;5.30;99.90
15959;DHT22;8078;47.822;9.402;2023-04-25T01:49:57;5.30;99.90
15959;DHT22;8078;47.822;9.402;2023-04-25T01:52:23;5.30;99.90
15959;DHT22;8078;47.822;9.402;2023-04-25T01:54:49;5.20;99.90
15959;DHT22;8078;47.822;9.402;2023-04-25T01:57:16;5.10;99.90
15959;DHT22;8078;47.822;9.402;2023-04-25T01:59:43;5.10;99.90
15959;DHT22;8078;47.822;9.402;2023-04-25T02:02:08;5.00;99.90
15959;DHT22;8078;47.822;9.402;2023-04-25T02:04:34;4.80;99.90
15959;DHT22;8078;47.822;9.402;2023-04-25T02:06:59;4.80;99.90
15959;DHT22;8078;47.822;9.402;2023-04-25T02:09:25;4.70;99.90
15959;DHT22;8078;47.822;9.402;2023-04-25T02:11:50;4.70;99.90
15959;DHT22;8078;47.822;9.402;2023-04-25T02:14:16;4.70;99.90
15959;DHT22;8078;47.822;9.402;2023-04-25T02:16:42;4.70;99.90
15959;DHT22;8078;47.822;9.402;2023-04-25T02:19:09;4.70;99.90
15959;DHT22;8078;47.822;9.402;2023-04-25T02:21:35;4.70;99.90
15959;DHT22;8078;47.822;9.402;2023-04-25T02:24:01;4.70;99.90
15959;DHT22;8078;47.822;9.402;2023-04-25T02:26:26;4.70;99.90
15959;DHT22;8078;47.822;9.402;2023-04-25T02:28:52;4.70;99.90
15959;DHT22;8078;47.822;9.402;2023-04-25T02:31:18;4.70;99.90
15959;DHT22;8078;47.822;9.402;2023-04-25T02:33:44;4.70;99.90
15959;DHT22;8078;47.822;9.402;2023-04-25T02:36:10;4.70;99.90
15959;DHT22;8078;47.822;9.402;2023-04-25T02:38:35;4.60;99.90
15959;DHT22;8078;47.822;9.402;2023-04-25T02:41:01;4.60;99.90
15959;DHT22;8078;47.822;9.402;2023-04-25T02:43:26;4.60;99.90
15959;DHT22;8078;47.822;9.402;2023-04-25T02:45:52;4.50;99.90
15959;DHT22;8078;47.822;9.402;2023-04-25T02:48:17;4.40;99.90
15959;DHT22;8078;47.822;9.402;2023-04-25T02:50:43;4.40;99.90
15959;DHT22;8078;47.822;9.402;2023-04-25T02:53:09;4.40;99.90
15959;DHT22;8078;47.822;9.402;2023-04-25T02:55:35;4.30;99.90
15959;DHT22;8078;47.822;9.402;2023-04-25T02:58:00;4.30;99.90
15959;DHT22;8078;47.822;9.402;2023-04-25T03:00:26;4.20;99.90
15959;DHT22;8078;47.822;9.402;2023-04-25T03:02:51;4.20;99.90
15959;DHT22;8078;47.822;9.402;2023-04-25T03:05:17;4.20;99.90
15959;DHT22;8078;47.822;9.402;2023-04-25T03:07:43;4.20;99.90
15959;DHT22;8078;47.822;9.402;2023-04-25T03:10:10;4.10;99.90
15959;DHT22;8078;47.822;9.402;2023-04-25T03:12:36;4.20;99.90
15959;DHT22;8078;47.822;9.402;2023-04-25T03:15:02;4.20;99.90
15959;DHT22;8078;47.822;9.402;2023-04-25T03:17:27;4.20;99.90
15959;DHT22;8078;47.822;9.402;2023-04-25T03:19:53;4.10;99.90
15959;DHT22;8078;47.822;9.402;2023-04-25T03:22:18;4.10;99.90
15959;DHT22;8078;47.822;9.402;2023-04-25T03:24:44;4.20;99.90
15959;DHT22;8078;47.822;9.402;2023-04-25T03:27:10;4.10;99.90
15959;DHT22;8078;47.822;9.402;2023-04-25T03:29:35;4.10;99.90
15959;DHT22;8078;47.822;9.402;2023-04-25T03:32:01;4.10;99.90
15959;DHT22;8078;47.822;9.402;2023-04-25T03:34:27;4.10;99.90
15959;DHT22;8078;47.822;9.402;2023-04-25T03:36:53;4.10;99.90
15959;DHT22;8078;47.822;9.402;2023-04-25T03:39:18;4.10;99.90
15959;DHT22;8078;47.822;9.402;2023-04-25T03:41:44;4.10;99.90
15959;DHT22;8078;47.822;9.402;2023-04-25T03:44:10;4.10;99.90
15959;DHT22;8078;47.822;9.402;2023-04-25T03:46:35;4.00;99.90
15959;DHT22;8078;47.822;9.402;2023-04-25T03:49:01;4.00;99.90
15959;DHT22;8078;47.822;9.402;2023-04-25T03:51:26;3.90;99.90
15959;DHT22;8078;47.822;9.402;2023-04-25T03:53:52;3.80;99.90
15959;DHT22;8078;47.822;9.402;2023-04-25T03:56:17;3.90;99.90
15959;DHT22;8078;47.822;9.402;2023-04-25T03:58:44;3.90;99.90
15959;DHT22;8078;47.822;9.402;2023-04-25T04:01:09;3.90;99.90
15959;DHT22;8078;47.822;9.402;2023-04-25T04:03:36;3.90;99.90
15959;DHT22;8078;47.822;9.402;2023-04-25T04:06:03;3.90;99.90
15959;DHT22;8078;47.822;9.402;2023-04-25T04:08:29;3.90;99.90
15959;DHT22;8078;47.822;9.402;2023-04-25T04:10:55;3.90;99.90
15959;DHT22;8078;47.822;9.402;2023-04-25T04:13:21;3.90;99.90
15959;DHT22;8078;47.822;9.402;2023-04-25T04:15:46;3.90;99.90
15959;DHT22;8078;47.822;9.402;2023-04-25T04:18:12;3.90;99.90
15959;DHT22;8078;47.822;9.402;2023-04-25T04:20:37;3.90;99.90
15959;DHT22;8078;47.822;9.402;2023-04-25T04:23:03;3.90;99.90
15959;DHT22;8078;47.822;9.402;2023-04-25T04:25:28;4.00;99.90
15959;DHT22;8078;47.822;9.402;2023-04-25T04:27:55;3.90;99.90
15959;DHT22;8078;47.822;9.402;2023-04-25T04:30:24;3.90;99.90
15959;DHT22;8078;47.822;9.402;2023-04-25T04:32:51;3.90;99.90
15959;DHT22;8078;47.822;9.402;2023-04-25T04:35:17;3.90;99.90
15959;DHT22;8078;47.822;9.402;2023-04-25T04:37:42;3.90;99.90
15959;DHT22;8078;47.822;9.402;2023-04-25T04:40:09;3.90;99.90
15959;DHT22;8078;47.822;9.402;2023-04-25T04:42:35;3.90;99.90
15959;DHT22;8078;47.822;9.402;2023-04-25T04:45:01;4.00;99.90
15959;DHT22;8078;47.822;9.402;2023-04-25T04:47:29;4.00;99.90
15959;DHT22;8078;47.822;9.402;2023-04-25T04:49:59;4.00;99.90
15959;DHT22;8078;47.822;9.402;2023-04-25T04:52:25;4.10;99.90
15959;DHT22;8078;47.822;9.402;2023-04-25T04:54:50;4.10;99.90
15959;DHT22;8078;47.822;9.402;2023-04-25T04:57:16;4.20;99.90
15959;DHT22;8078;47.822;9.402;2023-04-25T04:59:44;4.30;99.90
15959;DHT22;8078;47.822;9.402;2023-04-25T05:02:10;4.50;99.90
15959;DHT22;8078;47.822;9.402;2023-04-25T05:04:35;4.50;99.90
15959;DHT22;8078;47.822;9.402;2023-04-25T05:07:01;4.70;99.90
15959;DHT22;8078;47.822;9.402;2023-04-25T05:09:27;4.80;99.90
15959;DHT22;8078;47.822;9.402;2023-04-25T05:11:52;4.90;99.90
15959;DHT22;8078;47.822;9.402;2023-04-25T05:14:18;5.00;99.90
15959;DHT22;8078;47.822;9.402;2023-04-25T05:16:44;5.00;99.90
15959;DHT22;8078;47.822;9.402;2023-04-25T05:19:09;5.00;99.90
15959;DHT22;8078;47.822;9.402;2023-04-25T05:21:35;5.00;99.90
15959;DHT22;8078;47.822;9.402;2023-04-25T05:24:01;5.10;99.90
15959;DHT22;8078;47.822;9.402;2023-04-25T05:26:27;5.20;99.90
15959;DHT22;8078;47.822;9.402;2023-04-25T05:28:56;5.40;99.90
15959;DHT22;8078;47.822;9.402;2023-04-25T05:31:22;5.40;99.90
15959;DHT22;8078;47.822;9.402;2023-04-25T05:33:48;5.30;99.90
15959;DHT22;8078;47.822;9.402;2023-04-25T05:36:13;5.30;99.90
15959;DHT22;8078;47.822;9.402;2023-04-25T05:38:39;5.30;99.90
15959;DHT22;8078;47.822;9.402;2023-04-25T05:41:04;5.10;99.90
15959;DHT22;8078;47.822;9.402;2023-04-25T05:43:30;5.10;99.90
15959;DHT22;8078;47.822;9.402;2023-04-25T05:45:55;5.10;99.90
15959;DHT22;8078;47.822;9.402;2023-04-25T05:48:21;5.10;99.90
15959;DHT22;8078;47.822;9.402;2023-04-25T05:50:46;5.10;99.90
15959;DHT22;8078;47.822;9.402;2023-04-25T05:53:12;5.30;99.90
15959;DHT22;8078;47.822;9.402;2023-04-25T05:55:38;5.30;99.90
15959;DHT22;8078;47.822;9.402;2023-04-25T05:58:05;5.40;99.90
15959;DHT22;8078;47.822;9.402;2023-04-25T06:00:30;5.60;99.90
15959;DHT22;8078;47.822;9.402;2023-04-25T06:02:56;5.70;99.90
15959;DHT22;8078;47.822;9.402;2023-04-25T06:05:21;5.90;99.90
15959;DHT22;8078;47.822;9.402;2023-04-25T06:07:47;6.00;99.90
15959;DHT22;8078;47.822;9.402;2023-04-25T06:10:13;6.00;99.90
15959;DHT22;8078;47.822;9.402;2023-04-25T06:12:38;6.10;99.90
15959;DHT22;8078;47.822;9.402;2023-04-25T06:15:05;6.10;99.90
15959;DHT22;8078;47.822;9.402;2023-04-25T06:17:30;6.10;99.90
15959;DHT22;8078;47.822;9.402;2023-04-25T06:19:56;6.30;99.90
15959;DHT22;8078;47.822;9.402;2023-04-25T06:22:21;6.30;99.90
15959;DHT22;8078;47.822;9.402;2023-04-25T06:24:47;6.40;99.90
15959;DHT22;8078;47.822;9.402;2023-04-25T06:27:12;6.50;99.90
15959;DHT22;8078;47.822;9.402;2023-04-25T06:29:38;6.50;99.90
15959;DHT22;8078;47.822;9.402;2023-04-25T06:32:04;6.40;99.90
15959;DHT22;8078;47.822;9.402;2023-04-25T06:34:29;6.50;99.90
15959;DHT22;8078;47.822;9.402;2023-04-25T06:36:55;6.30;99.90
15959;DHT22;8078;47.822;9.402;2023-04-25T06:39:21;6.10;99.90
15959;DHT22;8078;47.822;9.402;2023-04-25T06:41:48;6.00;99.90
15959;DHT22;8078;47.822;9.402;2023-04-25T06:44:14;6.00;99.90
15959;DHT22;8078;47.822;9.402;2023-04-25T06:46:40;6.00;99.90
15959;DHT22;8078;47.822;9.402;2023-04-25T06:49:06;6.10;99.90
15959;DHT22;8078;47.822;9.402;2023-04-25T06:51:31;6.10;99.90
15959;DHT22;8078;47.822;9.402;2023-04-25T06:53:57;6.10;99.90
15959;DHT22;8078;47.822;9.402;2023-04-25T06:56:23;6.30;99.90
15959;DHT22;8078;47.822;9.402;2023-04-25T06:58:49;6.40;99.90
15959;DHT22;8078;47.822;9.402;2023-04-25T07:01:14;6.50;99.90
15959;DHT22;8078;47.822;9.402;2023-04-25T07:03:40;6.60;99.90
15959;DHT22;8078;47.822;9.402;2023-04-25T07:06:06;6.60;99.90
15959;DHT22;8078;47.822;9.402;2023-04-25T07:08:32;6.60;99.90
15959;DHT22;8078;47.822;9.402;2023-04-25T07:10:57;6.60;99.90
15959;DHT22;8078;47.822;9.402;2023-04-25T07:13:23;6.70;99.90
15959;DHT22;8078;47.822;9.402;2023-04-25T07:15:48;6.50;99.90
15959;DHT22;8078;47.822;9.402;2023-04-25T07:18:14;6.40;99.90
15959;DHT22;8078;47.822;9.402;2023-04-25T07:20:40;6.50;99.90
15959;DHT22;8078;47.822;9.402;2023-04-25T07:23:06;6.70;99.90
15959;DHT22;8078;47.822;9.402;2023-04-25T07:25:32;6.60;99.90
15959;DHT22;8078;47.822;9.402;2023-04-25T07:27:57;6.60;99.90
15959;DHT22;8078;47.822;9.402;2023-04-25T07:30:23;6.70;99.90
15959;DHT22;8078;47.822;9.402;2023-04-25T07:32:49;6.50;99.90
15959;DHT22;8078;47.822;9.402;2023-04-25T07:35:15;6.30;99.90
15959;DHT22;8078;47.822;9.402;2023-04-25T07:37:41;6.30;99.90
15959;DHT22;8078;47.822;9.402;2023-04-25T07:40:07;6.20;99.90
15959;DHT22;8078;47.822;9.402;2023-04-25T07:42:34;6.10;99.90
15959;DHT22;8078;47.822;9.402;2023-04-25T07:45:00;5.90;99.90
15959;DHT22;8078;47.822;9.402;2023-04-25T07:47:26;5.70;99.90
15959;DHT22;8078;47.822;9.402;2023-04-25T07:49:51;5.60;99.90
15959;DHT22;8078;47.822;9.402;2023-04-25T07:52:17;5.20;99.90
15959;DHT22;8078;47.822;9.402;2023-04-25T07:54:43;5.10;99.90
15959;DHT22;8078;47.822;9.402;2023-04-25T07:57:08;4.90;99.90
15959;DHT22;8078;47.822;9.402;2023-04-25T07:59:34;4.90;99.90
15959;DHT22;8078;47.822;9.402;2023-04-25T08:02:00;4.90;99.90
15959;DHT22;8078;47.822;9.402;2023-04-25T08:04:26;4.80;99.90
15959;DHT22;8078;47.822;9.402;2023-04-25T08:06:52;4.60;99.90
15959;DHT22;8078;47.822;9.402;2023-04-25T08:09:19;4.50;99.90
15959;DHT22;8078;47.822;9.402;2023-04-25T08:11:44;4.40;99.90
15959;DHT22;8078;47.822;9.402;2023-04-25T08:14:11;4.10;99.90
15959;DHT22;8078;47.822;9.402;2023-04-25T08:16:37;3.80;99.90
15959;DHT22;8078;47.822;9.402;2023-04-25T08:19:03;3.60;99.90
15959;DHT22;8078;47.822;9.402;2023-04-25T08:21:28;3.30;99.90
15959;DHT22;8078;47.822;9.402;2023-04-25T08:23:54;3.10;99.90
15959;DHT22;8078;47.822;9.402;2023-04-25T08:26:20;3.00;99.90
15959;DHT22;8078;47.822;9.402;2023-04-25T08:28:46;2.90;99.90
15959;DHT22;8078;47.822;9.402;2023-04-25T08:31:11;2.70;99.90
15959;DHT22;8078;47.822;9.402;2023-04-25T08:33:37;2.50;99.90
15959;DHT22;8078;47.822;9.402;2023-04-25T08:36:03;2.40;99.90
15959;DHT22;8078;47.822;9.402;2023-04-25T08:38:28;2.10;99.90
15959;DHT22;8078;47.822;9.402;2023-04-25T08:40:54;2.10;99.90
15959;DHT22;8078;47.822;9.402;2023-04-25T08:43:23;2.00;99.90
15959;DHT22;8078;47.822;9.402;2023-04-25T08:45:48;1.90;99.90
15959;DHT22;8078;47.822;9.402;2023-04-25T08:48:16;1.90;99.90
15959;DHT22;8078;47.822;9.402;2023-04-25T08:50:51;2.00;99.90
15959;DHT22;8078;47.822;9.402;2023-04-25T08:53:17;2.00;99.90
15959;DHT22;8078;47.822;9.402;2023-04-25T08:55:46;2.10;99.90
15959;DHT22;8078;47.822;9.402;2023-04-25T08:58:13;2.20;99.90
15959;DHT22;8078;47.822;9.402;2023-04-25T09:00:39;2.30;99.90
15959;DHT22;8078;47.822;9.402;2023-04-25T09:03:04;2.40;99.90
15959;DHT22;8078;47.822;9.402;2023-04-25T09:05:34;2.60;99.90
15959;DHT22;8078;47.822;9.402;2023-04-25T09:08:01;2.60;99.90
15959;DHT22;8078;47.822;9.402;2023-04-25T09:10:27;2.60;99.90
15959;DHT22;8078;47.822;9.402;2023-04-25T09:15:32;2.80;99.90
15959;DHT22;8078;47.822;9.402;2023-04-25T09:17:58;2.90;99.90
15959;DHT22;8078;47.822;9.402;2023-04-25T09:20:24;2.90;99.90
15959;DHT22;8078;47.822;9.402;2023-04-25T09:23:02;3.00;99.90
15959;DHT22;8078;47.822;9.402;2023-04-25T09:25:36;3.20;99.90
15959;DHT22;8078;47.822;9.402;2023-04-25T09:28:05;3.10;99.90
15959;DHT22;8078;47.822;9.402;2023-04-25T09:30:34;3.20;99.90
15959;DHT22;8078;47.822;9.402;2023-04-25T09:33:10;3.20;99.90
15959;DHT22;8078;47.822;9.402;2023-04-25T09:35:43;3.20;99.90
15959;DHT22;8078;47.822;9.402;2023-04-25T09:38:12;3.20;99.90
15959;DHT22;8078;47.822;9.402;2023-04-25T09:40:55;3.30;99.90
15959;DHT22;8078;47.822;9.402;2023-04-25T09:43:23;3.20;99.90
15959;DHT22;8078;47.822;9.402;2023-04-25T09:45:49;3.30;99.90
15959;DHT22;8078;47.822;9.402;2023-04-25T09:48:20;3.40;99.90
15959;DHT22;8078;47.822;9.402;2023-04-25T09:51:09;3.40;99.90
15959;DHT22;8078;47.822;9.402;2023-04-25T09:53:39;3.40;99.90
15959;DHT22;8078;47.822;9.402;2023-04-25T09:56:07;3.40;99.90
15959;DHT22;8078;47.822;9.402;2023-04-25T09:58:33;3.40;99.90
15959;DHT22;8078;47.822;9.402;2023-04-25T10:01:04;3.50;99.90
15959;DHT22;8078;47.822;9.402;2023-04-25T10:03:32;3.60;99.90
15959;DHT22;8078;47.822;9.402;2023-04-25T10:06:08;3.70;99.90
15959;DHT22;8078;47.822;9.402;2023-04-25T10:08:36;3.60;99.90
15959;DHT22;8078;47.822;9.402;2023-04-25T10:11:03;3.90;99.90
15959;DHT22;8078;47.822;9.402;2023-04-25T10:13:30;3.90;99.90
15959;DHT22;8078;47.822;9.402;2023-04-25T10:16:04;4.10;99.90
15959;DHT22;8078;47.822;9.402;2023-04-25T10:18:31;4.00;99.90
15959;DHT22;8078;47.822;9.402;2023-04-25T10:20:59;4.30;99.90
15959;DHT22;8078;47.822;9.402;2023-04-25T10:23:25;4.40;99.90
15959;DHT22;8078;47.822;9.402;2023-04-25T10:25:52;4.60;99.90
15959;DHT22;8078;47.822;9.402;2023-04-25T10:28:18;4.70;99.90
15959;DHT22;8078;47.822;9.402;2023-04-25T10:31:00;5.10;99.90
15959;DHT22;8078;47.822;9.402;2023-04-25T10:33:32;5.60;99.90
15959;DHT22;8078;47.822;9.402;2023-04-25T10:35:59;5.30;99.90
15959;DHT22;8078;47.822;9.402;2023-04-25T10:38:33;5.50;99.90
15959;DHT22;8078;47.822;9.402;2023-04-25T10:41:06;5.50;99.90
15959;DHT22;8078;47.822;9.402;2023-04-25T10:43:43;5.60;99.90
15959;DHT22;8078;47.822;9.402;2023-04-25T10:46:28;5.40;99.90
15959;DHT22;8078;47.822;9.402;2023-04-25T10:48:57;5.30;99.90
15959;DHT22;8078;47.822;9.402;2023-04-25T10:51:34;5.40;99.90
15959;DHT22;8078;47.822;9.402;2023-04-25T10:54:07;5.60;99.90
15959;DHT22;8078;47.822;9.402;2023-04-25T10:56:39;5.60;99.90
15959;DHT22;8078;47.822;9.402;2023-04-25T11:01:38;5.80;99.90
15959;DHT22;8078;47.822;9.402;2023-04-25T11:04:03;6.00;99.90
15959;DHT22;8078;47.822;9.402;2023-04-25T11:06:35;6.30;99.90
15959;DHT22;8078;47.822;9.402;2023-04-25T11:09:03;6.20;99.90
15959;DHT22;8078;47.822;9.402;2023-04-25T11:11:36;6.20;99.90
15959;DHT22;8078;47.822;9.402;2023-04-25T11:14:02;6.50;99.90
15959;DHT22;8078;47.822;9.402;2023-04-25T11:16:27;6.40;99.90
15959;DHT22;8078;47.822;9.402;2023-04-25T11:18:53;6.40;99.90
15959;DHT22;8078;47.822;9.402;2023-04-25T11:21:18;6.30;99.90
15959;DHT22;8078;47.822;9.402;2023-04-25T11:23:46;6.40;99.90
15959;DHT22;8078;47.822;9.402;2023-04-25T11:26:13;6.50;99.90
15959;DHT22;8078;47.822;9.402;2023-04-25T11:28:38;6.20;99.90
15959;DHT22;8078;47.822;9.402;2023-04-25T11:31:04;6.30;99.90
15959;DHT22;8078;47.822;9.402;2023-04-25T11:33:29;6.70;99.90
15959;DHT22;8078;47.822;9.402;2023-04-25T11:35:55;7.50;99.90
15959;DHT22;8078;47.822;9.402;2023-04-25T11:38:24;7.80;99.90
15959;DHT22;8078;47.822;9.402;2023-04-25T11:40:52;7.00;99.90
15959;DHT22;8078;47.822;9.402;2023-04-25T11:43:20;7.10;99.90
15959;DHT22;8078;47.822;9.402;2023-04-25T11:45:49;7.00;99.90
15959;DHT22;8078;47.822;9.402;2023-04-25T11:48:16;7.10;99.90
15959;DHT22;8078;47.822;9.402;2023-04-25T11:50:42;7.50;99.90
15959;DHT22;8078;47.822;9.402;2023-04-25T11:53:07;8.00;99.90
15959;DHT22;8078;47.822;9.402;2023-04-25T11:55:34;8.10;99.90
15959;DHT22;8078;47.822;9.402;2023-04-25T11:58:00;8.20;99.90
15959;DHT22;8078;47.822;9.402;2023-04-25T12:00:27;7.90;99.90
15959;DHT22;8078;47.822;9.402;2023-04-25T12:02:53;7.60;99.90
15959;DHT22;8078;47.822;9.402;2023-04-25T12:05:20;7.80;99.90
15959;DHT22;8078;47.822;9.402;2023-04-25T12:07:46;7.70;99.90
15959;DHT22;8078;47.822;9.402;2023-04-25T12:10:13;7.90;99.90
15959;DHT22;8078;47.822;9.402;2023-04-25T12:12:45;7.20;99.90
15959;DHT22;8078;47.822;9.402;2023-04-25T12:15:18;7.20;99.90
15959;DHT22;8078;47.822;9.402;2023-04-25T12:17:50;7.30;99.90
15959;DHT22;8078;47.822;9.402;2023-04-25T12:20:18;7.00;99.90
15959;DHT22;8078;47.822;9.402;2023-04-25T12:22:45;6.80;99.90
15959;DHT22;8078;47.822;9.402;2023-04-25T12:25:13;7.00;99.90
15959;DHT22;8078;47.822;9.402;2023-04-25T12:27:39;7.10;99.90
15959;DHT22;8078;47.822;9.402;2023-04-25T12:30:09;7.20;99.90
15959;DHT22;8078;47.822;9.402;2023-04-25T12:32:36;7.40;99.90
15959;DHT22;8078;47.822;9.402;2023-04-25T12:35:03;7.30;99.90
15959;DHT22;8078;47.822;9.402;2023-04-25T12:37:29;7.20;99.90
15959;DHT22;8078;47.822;9.402;2023-04-25T12:39:55;7.50;99.90
15959;DHT22;8078;47.822;9.402;2023-04-25T12:42:20;8.10;99.90
15959;DHT22;8078;47.822;9.402;2023-04-25T12:44:46;8.20;99.90
15959;DHT22;8078;47.822;9.402;2023-04-25T12:47:11;8.40;99.90
15959;DHT22;8078;47.822;9.402;2023-04-25T12:49:37;8.10;99.90
15959;DHT22;8078;47.822;9.402;2023-04-25T12:52:03;8.10;99.90
15959;DHT22;8078;47.822;9.402;2023-04-25T12:54:28;7.90;99.90
15959;DHT22;8078;47.822;9.402;2023-04-25T12:56:54;8.20;99.90
15959;DHT22;8078;47.822;9.402;2023-04-25T12:59:20;8.40;99.90
15959;DHT22;8078;47.822;9.402;2023-04-25T13:01:46;8.90;99.90
15959;DHT22;8078;47.822;9.402;2023-04-25T13:04:12;9.40;99.90
15959;DHT22;8078;47.822;9.402;2023-04-25T13:06:37;9.10;99.90
15959;DHT22;8078;47.822;9.402;2023-04-25T13:09:03;8.80;99.90
15959;DHT22;8078;47.822;9.402;2023-04-25T13:11:29;8.70;99.90
15959;DHT22;8078;47.822;9.402;2023-04-25T13:13:55;8.80;99.90
15959;DHT22;8078;47.822;9.402;2023-04-25T13:16:21;9.30;99.90
15959;DHT22;8078;47.822;9.402;2023-04-25T13:18:46;9.30;99.90
15959;DHT22;8078;47.822;9.402;2023-04-25T13:21:12;9.20;99.90
15959;DHT22;8078;47.822;9.402;2023-04-25T13:23:38;8.90;99.90
15959;DHT22;8078;47.822;9.402;2023-04-25T13:26:03;8.50;99.90
15959;DHT22;8078;47.822;9.402;2023-04-25T13:28:29;8.60;99.90
15959;DHT22;8078;47.822;9.402;2023-04-25T13:30:54;9.10;99.90
15959;DHT22;8078;47.822;9.402;2023-04-25T13:33:20;9.10;99.90
15959;DHT22;8078;47.822;9.402;2023-04-25T13:35:48;8.80;99.90
15959;DHT22;8078;47.822;9.402;2023-04-25T13:38:23;8.60;99.90
15959;DHT22;8078;47.822;9.402;2023-04-25T13:40:49;8.90;99.90
15959;DHT22;8078;47.822;9.402;2023-04-25T13:43:15;8.70;99.90
15959;DHT22;8078;47.822;9.402;2023-04-25T13:45:41;8.60;99.90
15959;DHT22;8078;47.822;9.402;2023-04-25T13:48:07;8.30;99.90
15959;DHT22;8078;47.822;9.402;2023-04-25T13:50:32;8.20;99.90
15959;DHT22;8078;47.822;9.402;2023-04-25T13:52:58;8.50;99.90
15959;DHT22;8078;47.822;9.402;2023-04-25T13:55:23;8.90;99.90
15959;DHT22;8078;47.822;9.402;2023-04-25T13:57:49;9.40;99.90
15959;DHT22;8078;47.822;9.402;2023-04-25T14:00:15;9.30;99.90
15959;DHT22;8078;47.822;9.402;2023-04-25T14:02:42;9.90;99.90
15959;DHT22;8078;47.822;9.402;2023-04-25T14:05:08;9.40;99.90
15959;DHT22;8078;47.822;9.402;2023-04-25T14:07:34;8.90;99.90
15959;DHT22;8078;47.822;9.402;2023-04-25T14:10:00;8.80;99.90
15959;DHT22;8078;47.822;9.402;2023-04-25T14:12:26;8.80;99.90
15959;DHT22;8078;47.822;9.402;2023-04-25T14:14:52;9.10;99.90
15959;DHT22;8078;47.822;9.402;2023-04-25T14:17:18;9.80;99.90
15959;DHT22;8078;47.822;9.402;2023-04-25T14:19:44;10.20;99.90
15959;DHT22;8078;47.822;9.402;2023-04-25T14:22:13;10.40;99.90
15959;DHT22;8078;47.822;9.402;2023-04-25T14:24:38;10.10;99.90
15959;DHT22;8078;47.822;9.402;2023-04-25T14:28:09;10.50;99.90
15959;DHT22;8078;47.822;9.402;2023-04-25T14:30:35;10.80;99.90
15959;DHT22;8078;47.822;9.402;2023-04-25T14:33:00;10.60;99.90
15959;DHT22;8078;47.822;9.402;2023-04-25T14:35:26;9.90;99.90
15959;DHT22;8078;47.822;9.402;2023-04-25T14:37:53;9.90;99.90
15959;DHT22;8078;47.822;9.402;2023-04-25T14:40:18;9.80;99.90
15959;DHT22;8078;47.822;9.402;2023-04-25T14:42:47;9.90;99.90
15959;DHT22;8078;47.822;9.402;2023-04-25T14:45:13;9.70;99.90
15959;DHT22;8078;47.822;9.402;2023-04-25T14:47:39;9.50;99.90
15959;DHT22;8078;47.822;9.402;2023-04-25T14:50:06;9.50;99.90
15959;DHT22;8078;47.822;9.402;2023-04-25T14:52:32;9.80;99.90
15959;DHT22;8078;47.822;9.402;2023-04-25T14:54:58;9.70;99.90
15959;DHT22;8078;47.822;9.402;2023-04-25T14:57:25;10.00;99.90
15959;DHT22;8078;47.822;9.402;2023-04-25T14:59:51;10.60;99.90
15959;DHT22;8078;47.822;9.402;2023-04-25T15:02:17;11.40;99.90
15959;DHT22;8078;47.822;9.402;2023-04-25T15:04:42;11.30;99.90
15959;DHT22;8078;47.822;9.402;2023-04-25T15:07:08;11.10;99.90
15959;DHT22;8078;47.822;9.402;2023-04-25T15:09:34;10.20;99.90
15959;DHT22;8078;47.822;9.402;2023-04-25T15:11:59;9.40;99.90
15959;DHT22;8078;47.822;9.402;2023-04-25T15:14:25;9.10;99.90
15959;DHT22;8078;47.822;9.402;2023-04-25T15:16:51;9.30;99.90
15959;DHT22;8078;47.822;9.402;2023-04-25T15:19:17;9.70;99.90
15959;DHT22;8078;47.822;9.402;2023-04-25T15:21:42;9.50;99.90
15959;DHT22;8078;47.822;9.402;2023-04-25T15:24:08;9.50;99.90
15959;DHT22;8078;47.822;9.402;2023-04-25T15:26:33;9.30;99.90
15959;DHT22;8078;47.822;9.402;2023-04-25T15:28:59;9.10;99.90
15959;DHT22;8078;47.822;9.402;2023-04-25T15:31:24;9.30;99.90
15959;DHT22;8078;47.822;9.402;2023-04-25T15:33:50;9.70;99.90
15959;DHT22;8078;47.822;9.402;2023-04-25T15:36:16;10.00;99.90
15959;DHT22;8078;47.822;9.402;2023-04-25T15:38:42;9.60;99.90
15959;DHT22;8078;47.822;9.402;2023-04-25T15:41:08;9.00;99.90
15959;DHT22;8078;47.822;9.402;2023-04-25T15:43:34;8.20;99.90
15959;DHT22;8078;47.822;9.402;2023-04-25T15:46:03;8.30;99.90
15959;DHT22;8078;47.822;9.402;2023-04-25T15:48:28;7.80;99.90
15959;DHT22;8078;47.822;9.402;2023-04-25T15:50:54;7.60;99.90
15959;DHT22;8078;47.822;9.402;2023-04-25T15:53:20;7.70;99.90
15959;DHT22;8078;47.822;9.402;2023-04-25T15:55:46;7.70;99.90
15959;DHT22;8078;47.822;9.402;2023-04-25T15:58:11;7.60;99.90
15959;DHT22;8078;47.822;9.402;2023-04-25T16:00:37;7.40;99.90
15959;DHT22;8078;47.822;9.402;2023-04-25T16:03:04;7.30;99.90
15959;DHT22;8078;47.822;9.402;2023-04-25T16:05:29;7.30;99.90